createdAt,value
2018-08-11T00:02:25.719Z,1.10
2018-08-11T00:04:54.026Z,1.10
2018-08-11T00:07:22.333Z,1.40
2018-08-11T00:09:50.637Z,1.10
2018-08-11T00:12:19.019Z,1.20
2018-08-11T00:14:47.355Z,1.10
2018-08-11T00:17:15.690Z,0.80
2018-08-11T00:19:44.044Z,1.30
2018-08-11T00:22:12.361Z,1.10
2018-08-11T00:24:40.707Z,1.00
2018-08-11T00:27:09.030Z,1.00
2018-08-11T00:29:38.230Z,1.20
2018-08-11T00:32:06.595Z,1.10
2018-08-11T00:34:34.899Z,1.60
2018-08-11T00:37:03.226Z,1.20
2018-08-11T00:39:31.650Z,1.03
2018-08-11T00:42:00.148Z,0.97
2018-08-11T00:44:28.605Z,1.50
2018-08-11T00:46:57.022Z,1.10
2018-08-11T00:49:25.607Z,1.10
2018-08-11T00:51:54.016Z,1.17
2018-08-11T00:54:22.463Z,1.13
2018-08-11T00:56:50.909Z,0.83
2018-08-11T00:59:19.434Z,1.00
2018-08-11T01:01:47.926Z,0.83
2018-08-11T01:04:16.449Z,1.10
2018-08-11T01:06:44.883Z,1.10
2018-08-11T01:09:13.426Z,1.10
2018-08-11T01:11:41.954Z,1.17
2018-08-11T01:14:10.432Z,0.90
2018-08-11T01:16:38.945Z,1.20
2018-08-11T01:19:07.468Z,1.10
2018-08-11T01:21:35.965Z,1.27
2018-08-11T01:24:04.336Z,1.10
2018-08-11T01:26:32.799Z,1.10
2018-08-11T01:29:01.155Z,0.97
2018-08-11T01:31:29.578Z,1.30
2018-08-11T01:33:58.025Z,1.30
2018-08-11T01:36:26.412Z,1.10
2018-08-11T01:38:54.849Z,1.23
2018-08-11T01:41:24.375Z,1.10
2018-08-11T01:43:52.915Z,1.10
2018-08-11T01:46:21.455Z,1.40
2018-08-11T01:48:49.925Z,1.10
2018-08-11T01:51:18.394Z,1.00
2018-08-11T01:53:46.871Z,1.50
2018-08-11T01:56:15.327Z,1.27
2018-08-11T01:58:44.468Z,1.10
2018-08-11T02:01:12.913Z,0.90
2018-08-11T02:03:41.283Z,1.10
2018-08-11T02:06:09.723Z,1.30
2018-08-11T02:08:38.182Z,1.00
2018-08-11T02:11:06.889Z,1.57
2018-08-11T02:13:35.400Z,1.23
2018-08-11T02:16:03.889Z,0.97
2018-08-11T02:18:32.434Z,1.63
2018-08-11T02:21:01.067Z,1.23
2018-08-11T02:23:29.546Z,0.80
2018-08-11T02:25:58.027Z,1.53
2018-08-11T02:28:26.482Z,1.13
2018-08-11T02:30:55.038Z,1.27
2018-08-11T02:33:23.482Z,1.37
2018-08-11T02:35:51.900Z,1.37
2018-08-11T02:38:20.238Z,1.17
2018-08-11T02:40:48.722Z,1.00
2018-08-11T02:43:17.163Z,1.60
2018-08-11T02:45:45.701Z,1.27
2018-08-11T02:48:14.154Z,1.10
2018-08-11T02:50:42.687Z,1.53
2018-08-11T02:53:11.097Z,0.90
2018-08-11T02:55:39.476Z,1.33
2018-08-11T02:58:07.819Z,1.10
2018-08-11T03:00:36.353Z,1.20
2018-08-11T03:03:04.790Z,1.40
2018-08-11T03:05:33.163Z,1.40
2018-08-11T03:08:01.547Z,1.00
2018-08-11T03:10:29.948Z,1.20
2018-08-11T03:12:58.351Z,1.30
2018-08-11T03:15:26.768Z,1.63
2018-08-11T03:17:56.181Z,1.10
2018-08-11T03:20:24.645Z,1.33
2018-08-11T03:22:53.031Z,1.37
2018-08-11T03:25:21.444Z,1.70
2018-08-11T03:27:49.911Z,1.60
2018-08-11T03:30:18.389Z,1.37
2018-08-11T03:32:47.155Z,1.23
2018-08-11T03:35:15.731Z,1.50
2018-08-11T03:37:44.282Z,1.90
2018-08-11T03:40:12.688Z,2.00
2018-08-11T03:42:41.740Z,1.83
2018-08-11T03:45:10.235Z,1.57
2018-08-11T03:47:38.710Z,1.60
2018-08-11T03:50:07.510Z,1.47
2018-08-11T03:52:35.889Z,1.80
2018-08-11T03:55:04.315Z,1.97
2018-08-11T03:57:32.687Z,1.97
2018-08-11T04:00:01.256Z,1.53
2018-08-11T04:02:29.690Z,1.80
2018-08-11T04:04:59.638Z,2.53
2018-08-11T04:07:28.024Z,1.97
2018-08-11T04:09:56.405Z,2.13
2018-08-11T04:12:24.759Z,2.50
2018-08-11T04:14:54.150Z,2.60
2018-08-11T04:17:26.754Z,2.80
2018-08-11T04:19:55.132Z,2.67
2018-08-11T04:22:23.503Z,3.47
2018-08-11T04:24:51.903Z,3.07
2018-08-11T04:27:20.362Z,3.53
2018-08-11T04:29:48.734Z,3.60
2018-08-11T04:32:17.142Z,4.40
2018-08-11T04:34:45.516Z,3.83
2018-08-11T04:37:13.877Z,3.80
2018-08-11T04:39:42.472Z,3.80
2018-08-11T04:42:10.909Z,3.67
2018-08-11T04:44:39.419Z,4.10
2018-08-11T04:47:07.776Z,4.10
2018-08-11T04:49:36.231Z,4.73
2018-08-11T04:52:04.735Z,5.70
2018-08-11T04:54:33.129Z,3.87
2018-08-11T04:57:01.582Z,4.27
2018-08-11T04:59:30.148Z,3.83
2018-08-11T05:01:58.706Z,4.50
2018-08-11T05:04:28.038Z,3.90
2018-08-11T05:06:58.513Z,4.53
2018-08-11T05:09:27.039Z,4.53
2018-08-11T05:11:55.680Z,3.90
2018-08-11T05:14:24.201Z,4.07
2018-08-11T05:16:52.592Z,4.20
2018-08-11T05:19:21.839Z,4.03
2018-08-11T05:21:51.848Z,3.97
2018-08-11T05:24:20.406Z,3.97
2018-08-11T05:26:51.366Z,4.00
2018-08-11T05:29:20.533Z,3.97
2018-08-11T05:31:50.291Z,4.70
2018-08-11T05:34:18.718Z,3.77
2018-08-11T05:36:49.134Z,3.67
2018-08-11T05:39:19.526Z,3.00
2018-08-11T05:41:48.261Z,3.60
2018-08-11T05:44:18.412Z,3.10
2018-08-11T05:46:47.213Z,2.80
2018-08-11T05:49:17.334Z,3.13
2018-08-11T05:51:46.837Z,3.57
2018-08-11T05:54:16.921Z,2.87
2018-08-11T05:56:46.490Z,2.50
2018-08-11T05:59:15.561Z,2.40
2018-08-11T06:01:44.548Z,1.90
2018-08-11T06:04:12.955Z,2.70
2018-08-11T06:06:42.433Z,2.43
2018-08-11T06:09:12.030Z,1.90
2018-08-11T06:11:40.412Z,2.23
2018-08-11T06:14:09.339Z,1.90
2018-08-11T06:16:37.835Z,1.97
2018-08-11T06:19:06.253Z,1.57
2018-08-11T06:21:34.858Z,2.07
2018-08-11T06:24:03.232Z,2.20
2018-08-11T06:26:31.718Z,1.57
2018-08-11T06:29:00.324Z,1.67
2018-08-11T06:31:28.827Z,2.17
2018-08-11T06:33:57.052Z,2.20
2018-08-11T06:36:25.429Z,2.10
2018-08-11T06:38:55.344Z,2.37
2018-08-11T06:41:25.456Z,2.63
2018-08-11T06:43:54.534Z,2.93
2018-08-11T06:46:22.860Z,3.43
2018-08-11T06:48:51.212Z,3.50
2018-08-11T06:51:19.704Z,4.30
2018-08-11T06:53:48.160Z,5.10
2018-08-11T06:56:16.746Z,4.90
2018-08-11T06:58:46.515Z,4.73
2018-08-11T07:01:15.813Z,5.37
2018-08-11T07:03:45.839Z,5.83
2018-08-11T07:06:15.408Z,5.47
2018-08-11T07:08:45.557Z,5.37
2018-08-11T07:11:14.588Z,6.50
2018-08-11T07:13:44.231Z,5.90
2018-08-11T07:16:13.563Z,5.80
2018-08-11T07:18:43.505Z,6.47
2018-08-11T07:21:12.131Z,6.17
2018-08-11T07:23:40.634Z,7.00
2018-08-11T07:26:09.335Z,6.03
2018-08-11T07:28:38.627Z,6.43
2018-08-11T07:31:08.675Z,6.07
2018-08-11T07:33:37.172Z,5.97
2018-08-11T07:36:05.814Z,7.20
2018-08-11T07:38:35.303Z,7.00
2018-08-11T07:41:03.644Z,6.60
2018-08-11T07:43:32.447Z,5.67
2018-08-11T07:46:01.198Z,5.80
2018-08-11T07:48:30.149Z,5.90
2018-08-11T07:51:00.046Z,5.10
2018-08-11T07:53:29.965Z,5.43
2018-08-11T07:55:58.825Z,5.47
2018-08-11T07:58:27.235Z,4.97
2018-08-11T08:00:56.964Z,4.17
2018-08-11T08:03:26.710Z,4.87
2018-08-11T08:05:57.136Z,4.40
2018-08-11T08:08:26.421Z,4.00
2018-08-11T08:10:55.011Z,5.30
2018-08-11T08:13:24.729Z,4.07
2018-08-11T08:15:53.734Z,4.07
2018-08-11T08:18:22.254Z,4.40
2018-08-11T08:20:50.668Z,4.20
2018-08-11T08:23:22.490Z,4.73
2018-08-11T08:25:51.970Z,4.13
2018-08-11T08:28:21.405Z,3.77
2018-08-11T08:30:49.796Z,2.93
2018-08-11T08:33:18.244Z,2.70
2018-08-11T08:35:46.708Z,3.00
2018-08-11T08:38:15.195Z,2.80
2018-08-11T08:40:43.919Z,2.40
2018-08-11T08:43:12.383Z,2.53
2018-08-11T08:45:42.150Z,2.40
2018-08-11T08:48:10.599Z,2.47
2018-08-11T08:50:39.082Z,2.10
2018-08-11T08:53:07.880Z,2.30
2018-08-11T08:55:37.275Z,2.87
2018-08-11T08:58:05.931Z,2.43
2018-08-11T09:00:34.449Z,3.27
2018-08-11T09:03:02.965Z,2.20
2018-08-11T09:05:31.435Z,3.30
2018-08-11T09:08:00.020Z,2.77
2018-08-11T09:10:28.475Z,1.50
2018-08-11T09:12:57.552Z,1.43
2018-08-11T09:15:26.035Z,1.40
2018-08-11T09:17:55.340Z,1.80
2018-08-11T09:20:24.143Z,1.13
2018-08-11T09:22:53.615Z,1.40
2018-08-11T09:25:23.706Z,1.40
2018-08-11T09:27:52.968Z,1.27
2018-08-11T09:30:21.883Z,1.80
2018-08-11T09:32:51.354Z,1.20
2018-08-11T09:35:20.436Z,1.13
2018-08-11T09:37:51.480Z,1.77
2018-08-11T09:40:19.938Z,1.27
2018-08-11T09:42:49.984Z,1.50
2018-08-11T09:45:18.613Z,1.33
2018-08-11T09:47:47.635Z,1.00
2018-08-11T09:50:16.616Z,1.23
2018-08-11T09:52:45.127Z,1.33
2018-08-11T09:55:13.665Z,1.30
2018-08-11T09:57:42.595Z,1.73
2018-08-11T10:00:12.979Z,1.00
2018-08-11T10:02:41.541Z,1.20
2018-08-11T10:05:10.111Z,1.40
2018-08-11T10:07:38.611Z,1.27
2018-08-11T10:10:07.159Z,1.30
2018-08-11T10:12:36.591Z,1.03
2018-08-11T10:15:05.079Z,1.27
2018-08-11T10:17:33.539Z,1.30
2018-08-11T10:20:03.184Z,1.30
2018-08-11T10:22:34.318Z,3.33
2018-08-11T10:25:03.652Z,1.13
2018-08-11T10:27:32.252Z,1.30
2018-08-11T10:30:00.716Z,1.13
2018-08-11T10:32:30.329Z,1.10
2018-08-11T10:35:00.176Z,0.90
2018-08-11T10:37:29.960Z,1.20
2018-08-11T10:39:58.477Z,1.00
2018-08-11T10:42:28.286Z,1.13
2018-08-11T10:44:57.943Z,1.30
2018-08-11T10:47:27.083Z,1.30
2018-08-11T10:49:55.609Z,0.93
2018-08-11T10:52:25.643Z,0.90
2018-08-11T10:54:54.167Z,1.20
2018-08-11T10:57:23.022Z,0.80
2018-08-11T10:59:51.532Z,0.90
2018-08-11T11:02:21.388Z,1.10
2018-08-11T11:04:50.982Z,1.17
2018-08-11T11:07:20.080Z,1.00
2018-08-11T11:09:48.590Z,1.10
2018-08-11T11:12:17.046Z,1.00
2018-08-11T11:14:45.788Z,1.13
2018-08-11T11:17:16.949Z,0.90
2018-08-11T11:19:45.530Z,0.90
2018-08-11T11:22:14.934Z,0.90
2018-08-11T11:24:43.520Z,0.90
2018-08-11T11:27:11.985Z,0.80
2018-08-11T11:29:40.453Z,0.70
2018-08-11T11:32:09.233Z,1.10
2018-08-11T11:34:42.627Z,0.90
2018-08-11T11:37:11.174Z,1.07
2018-08-11T11:39:39.601Z,1.20
2018-08-11T11:42:09.064Z,1.37
2018-08-11T11:44:37.563Z,1.20
2018-08-11T11:47:06.045Z,0.83
2018-08-11T11:49:35.364Z,1.10
2018-08-11T11:52:04.578Z,0.80
2018-08-11T11:54:33.019Z,0.90
2018-08-11T11:57:02.863Z,0.80
2018-08-11T11:59:32.328Z,0.93
2018-08-11T12:02:00.827Z,0.90
2018-08-11T12:04:29.319Z,0.90
2018-08-11T12:06:58.868Z,0.97
2018-08-11T12:09:27.454Z,1.10
2018-08-11T12:11:55.936Z,1.10
2018-08-11T12:14:25.148Z,0.97
2018-08-11T12:16:55.261Z,1.13
2018-08-11T12:19:25.433Z,0.80
2018-08-11T12:21:53.861Z,0.90
2018-08-11T12:24:22.287Z,0.93
2018-08-11T12:26:50.750Z,1.10
2018-08-11T12:29:19.366Z,1.47
2018-08-11T12:31:49.333Z,1.10
2018-08-11T12:34:18.779Z,1.03
2018-08-11T12:36:48.282Z,1.20
2018-08-11T12:39:17.355Z,0.93
2018-08-11T12:41:45.942Z,1.00
2018-08-11T12:44:14.851Z,1.10
2018-08-11T12:46:44.396Z,1.10
2018-08-11T12:49:12.880Z,1.37
2018-08-11T12:51:41.299Z,1.00
2018-08-11T12:54:09.685Z,0.80
2018-08-11T12:56:38.162Z,1.10
2018-08-11T12:59:06.590Z,1.00
2018-08-11T13:01:35.088Z,0.90
2018-08-11T13:04:04.476Z,0.70
2018-08-11T13:06:32.917Z,1.10
2018-08-11T13:09:01.362Z,0.80
2018-08-11T13:11:29.779Z,0.90
2018-08-11T13:14:01.027Z,0.90
2018-08-11T13:16:29.515Z,1.03
2018-08-11T13:18:58.083Z,1.07
2018-08-11T13:21:26.558Z,1.00
2018-08-11T13:23:54.987Z,1.00
2018-08-11T13:26:23.406Z,1.10
2018-08-11T13:28:51.889Z,1.10
2018-08-11T13:31:20.412Z,0.90
2018-08-11T13:33:49.016Z,1.97
2018-08-11T13:36:17.957Z,1.17
2018-08-11T13:38:46.423Z,1.00
2018-08-11T13:41:14.961Z,0.83
2018-08-11T13:43:43.414Z,0.80
2018-08-11T13:46:11.877Z,1.10
2018-08-11T13:48:40.355Z,1.10
2018-08-11T13:51:09.000Z,0.80
2018-08-11T13:53:37.442Z,0.77
2018-08-11T13:56:06.246Z,0.97
2018-08-11T13:58:34.818Z,1.13
2018-08-11T14:01:03.412Z,1.03
2018-08-11T14:03:32.067Z,1.00
2018-08-11T14:06:00.587Z,0.90
2018-08-11T14:08:29.123Z,1.07
2018-08-11T14:10:57.683Z,1.20
2018-08-11T14:13:26.119Z,0.83
2018-08-11T14:15:54.877Z,1.30
2018-08-11T14:18:23.446Z,0.70
2018-08-11T14:20:52.183Z,1.07
2018-08-11T14:23:20.663Z,0.70
2018-08-11T14:25:49.421Z,1.07
2018-08-11T14:28:17.868Z,1.20
2018-08-11T14:30:46.422Z,0.80
2018-08-11T14:33:15.093Z,1.20
2018-08-11T14:35:43.684Z,1.13
2018-08-11T14:38:12.482Z,1.20
2018-08-11T14:40:41.130Z,0.90
2018-08-11T14:43:09.805Z,1.17
2018-08-11T14:45:38.301Z,1.23
2018-08-11T14:48:06.869Z,0.90
2018-08-11T14:50:35.645Z,0.90
2018-08-11T14:53:04.476Z,0.97
2018-08-11T14:55:32.999Z,0.97
2018-08-11T14:58:01.717Z,0.90
2018-08-11T15:00:30.256Z,1.13
2018-08-11T15:02:58.743Z,0.80
2018-08-11T15:05:27.544Z,0.80
2018-08-11T15:07:56.173Z,0.93
2018-08-11T15:10:24.796Z,0.80
2018-08-11T15:12:53.692Z,0.90
2018-08-11T15:15:22.663Z,1.00
2018-08-11T15:17:51.261Z,1.37
2018-08-11T15:20:20.201Z,1.13
2018-08-11T15:22:49.111Z,0.83
2018-08-11T15:25:17.710Z,1.00
2018-08-11T15:27:46.291Z,1.07
2018-08-11T15:30:14.804Z,1.13
2018-08-11T15:32:43.298Z,1.10
2018-08-11T15:35:11.934Z,0.90
2018-08-11T15:37:40.504Z,0.80
2018-08-11T15:40:09.541Z,0.80
2018-08-11T15:42:38.155Z,1.00
2018-08-11T15:45:07.390Z,0.80
2018-08-11T15:47:36.387Z,0.80
2018-08-11T15:50:05.376Z,0.90
2018-08-11T15:52:34.198Z,1.10
2018-08-11T15:55:02.865Z,1.17
2018-08-11T15:57:31.387Z,0.90
2018-08-11T16:00:02.673Z,1.17
2018-08-11T16:02:31.531Z,0.73
2018-08-11T16:05:00.018Z,0.90
2018-08-11T16:07:28.436Z,1.20
2018-08-11T16:09:57.080Z,0.90
2018-08-11T16:12:25.608Z,0.90
2018-08-11T16:14:54.256Z,0.90
2018-08-11T16:17:22.777Z,1.20
2018-08-11T16:19:51.293Z,1.00
2018-08-11T16:22:19.796Z,1.00
2018-08-11T16:24:48.298Z,1.00
2018-08-11T16:27:16.727Z,0.80
2018-08-11T16:29:45.214Z,0.90
2018-08-11T16:32:13.807Z,1.00
2018-08-11T16:34:42.305Z,0.90
2018-08-11T16:37:10.780Z,1.07
2018-08-11T16:39:39.813Z,1.00
2018-08-11T16:42:08.411Z,0.90
2018-08-11T16:44:36.937Z,1.00
2018-08-11T16:47:05.784Z,0.90
2018-08-11T16:49:34.367Z,0.80
2018-08-11T16:52:03.454Z,0.90
2018-08-11T16:54:32.300Z,0.90
2018-08-11T16:57:00.776Z,1.47
2018-08-11T16:59:29.298Z,1.10
2018-08-11T17:01:57.815Z,1.10
2018-08-11T17:04:26.505Z,0.87
2018-08-11T17:06:54.936Z,1.07
2018-08-11T17:09:23.430Z,1.10
2018-08-11T17:11:51.956Z,1.00
2018-08-11T17:14:21.287Z,0.90
2018-08-11T17:16:49.663Z,0.90
2018-08-11T17:19:18.204Z,1.33
2018-08-11T17:21:46.778Z,1.20
2018-08-11T17:24:15.320Z,0.90
2018-08-11T17:26:43.888Z,0.83
2018-08-11T17:29:12.355Z,1.57
2018-08-11T17:31:40.975Z,1.00
2018-08-11T17:34:09.443Z,1.07
2018-08-11T17:36:37.944Z,1.00
2018-08-11T17:39:08.567Z,0.83
2018-08-11T17:41:37.073Z,1.20
2018-08-11T17:44:05.539Z,0.90
2018-08-11T17:46:34.018Z,1.00
2018-08-11T17:49:02.684Z,0.97
2018-08-11T17:51:31.496Z,1.10
2018-08-11T17:54:00.483Z,1.37
2018-08-11T17:56:29.604Z,1.30
2018-08-11T17:58:58.572Z,0.90
2018-08-11T18:01:27.677Z,0.90
2018-08-11T18:03:56.803Z,0.90
2018-08-11T18:06:25.239Z,1.10
2018-08-11T18:08:54.113Z,1.00
2018-08-11T18:11:23.636Z,1.13
2018-08-11T18:13:52.320Z,0.87
2018-08-11T18:16:21.825Z,1.10
2018-08-11T18:18:50.397Z,1.90
2018-08-11T18:21:20.243Z,1.00
2018-08-11T18:23:48.932Z,0.90
2018-08-11T18:26:17.448Z,1.30
2018-08-11T18:28:45.887Z,1.40
2018-08-11T18:31:14.417Z,1.10
2018-08-11T18:33:42.997Z,0.80
2018-08-11T18:36:11.559Z,1.03
2018-08-11T18:38:40.051Z,0.90
2018-08-11T18:41:08.673Z,1.07
2018-08-11T18:43:37.321Z,0.80
2018-08-11T18:46:05.951Z,1.10
2018-08-11T18:48:34.619Z,1.00
2018-08-11T18:51:03.100Z,1.27
2018-08-11T18:53:31.626Z,1.10
2018-08-11T18:56:02.157Z,0.93
2018-08-11T18:58:30.549Z,1.13
2018-08-11T19:00:58.948Z,1.00
2018-08-11T19:03:27.678Z,1.03
2018-08-11T19:05:56.407Z,1.23
2018-08-11T19:08:24.930Z,1.43
2018-08-11T19:10:53.633Z,1.10
2018-08-11T19:13:22.040Z,1.00
2018-08-11T19:15:50.785Z,1.10
2018-08-11T19:18:19.872Z,1.03
2018-08-11T19:20:48.355Z,1.10
2018-08-11T19:23:17.111Z,1.03
2018-08-11T19:25:45.680Z,1.10
2018-08-11T19:28:14.230Z,1.17
2018-08-11T19:30:42.883Z,1.47
2018-08-11T19:33:11.331Z,1.20
2018-08-11T19:35:39.661Z,1.07
2018-08-11T19:38:08.228Z,1.00
2018-08-11T19:40:37.045Z,1.37
2018-08-11T19:43:05.656Z,1.20
2018-08-11T19:45:34.179Z,1.20
2018-08-11T19:48:02.760Z,1.17
2018-08-11T19:50:31.463Z,1.40
2018-08-11T19:53:00.104Z,1.37
2018-08-11T19:55:29.239Z,1.07
2018-08-11T19:57:58.035Z,1.40
2018-08-11T20:00:26.693Z,1.53
2018-08-11T20:02:56.488Z,1.40
2018-08-11T20:05:24.837Z,1.30
2018-08-11T20:07:53.441Z,1.37
2018-08-11T20:10:22.352Z,1.10
2018-08-11T20:12:51.015Z,1.70
2018-08-11T20:15:19.607Z,1.87
2018-08-11T20:17:48.032Z,1.73
2018-08-11T20:20:16.707Z,1.97
2018-08-11T20:22:45.273Z,1.47
2018-08-11T20:25:13.708Z,1.10
2018-08-11T20:27:42.998Z,1.60
2018-08-11T20:30:11.862Z,1.10
2018-08-11T20:32:40.585Z,1.47
2018-08-11T20:35:09.203Z,1.13
2018-08-11T20:37:37.706Z,1.30
2018-08-11T20:40:06.235Z,1.30
2018-08-11T20:42:34.625Z,1.60
2018-08-11T20:45:03.375Z,1.40
2018-08-11T20:47:32.012Z,1.60
2018-08-11T20:50:00.724Z,1.30
2018-08-11T20:52:29.195Z,1.50
2018-08-11T20:54:57.583Z,1.80
2018-08-11T20:57:26.389Z,1.70
2018-08-11T20:59:55.036Z,1.90
2018-08-11T21:02:23.455Z,1.37
2018-08-11T21:04:52.855Z,1.70
2018-08-11T21:07:21.405Z,1.80
2018-08-11T21:09:49.899Z,1.50
2018-08-11T21:12:19.105Z,1.80
2018-08-11T21:14:48.611Z,1.73
2018-08-11T21:17:17.009Z,1.93
2018-08-11T21:19:45.828Z,1.50
2018-08-11T21:22:14.309Z,2.10
2018-08-11T21:24:42.866Z,2.17
2018-08-11T21:27:11.307Z,2.30
2018-08-11T21:29:39.900Z,1.87
2018-08-11T21:32:08.259Z,1.33
2018-08-11T21:34:36.923Z,1.57
2018-08-11T21:37:05.327Z,1.90
2018-08-11T21:39:34.022Z,1.97
2018-08-11T21:42:02.529Z,1.53
2018-08-11T21:44:31.362Z,1.90
2018-08-11T21:46:59.901Z,1.97
2018-08-11T21:49:28.555Z,1.77
2018-08-11T21:51:56.975Z,1.87
2018-08-11T21:54:25.455Z,2.40
2018-08-11T21:56:54.291Z,2.23
2018-08-11T21:59:22.651Z,2.33
2018-08-11T22:01:51.911Z,2.17
2018-08-11T22:04:20.365Z,2.27
2018-08-11T22:06:48.704Z,2.03
2018-08-11T22:09:17.422Z,1.90
2018-08-11T22:11:45.864Z,2.27
2018-08-11T22:14:14.401Z,2.03
2018-08-11T22:16:43.086Z,2.33
2018-08-11T22:19:11.581Z,2.10
2018-08-11T22:21:40.083Z,2.37
2018-08-11T22:24:08.602Z,2.10
2018-08-11T22:26:36.926Z,2.20
2018-08-11T22:29:05.541Z,2.17
2018-08-11T22:31:33.894Z,1.83
2018-08-11T22:34:02.478Z,2.10
2018-08-11T22:36:30.815Z,2.00
2018-08-11T22:38:59.256Z,2.00
2018-08-11T22:41:27.848Z,2.43
2018-08-11T22:43:56.420Z,2.30
2018-08-11T22:46:24.887Z,2.40
2018-08-11T22:48:53.282Z,2.20
2018-08-11T22:51:21.657Z,2.53
2018-08-11T22:53:50.017Z,2.70
2018-08-11T22:56:18.856Z,2.47
2018-08-11T22:58:47.197Z,2.27
2018-08-11T23:01:15.506Z,2.80
2018-08-11T23:03:43.926Z,3.10
2018-08-11T23:06:12.511Z,3.00
2018-08-11T23:08:40.920Z,2.43
2018-08-11T23:11:12.266Z,2.80
2018-08-11T23:13:40.868Z,2.70
2018-08-11T23:16:09.307Z,2.70
2018-08-11T23:18:38.076Z,2.90
2018-08-11T23:21:06.423Z,2.50
2018-08-11T23:23:34.974Z,3.43
2018-08-11T23:26:03.526Z,3.53
2018-08-11T23:28:32.210Z,2.60
2018-08-11T23:31:00.933Z,3.03
2018-08-11T23:33:29.284Z,3.47
2018-08-11T23:35:57.607Z,2.87
2018-08-11T23:38:25.915Z,3.30
2018-08-11T23:40:54.420Z,3.80
2018-08-11T23:43:23.118Z,3.90
2018-08-11T23:45:51.524Z,3.00
2018-08-11T23:48:20.071Z,3.73
2018-08-11T23:50:48.433Z,3.50
2018-08-11T23:53:21.743Z,3.90
2018-08-11T23:55:50.150Z,3.87
2018-08-11T23:58:18.720Z,3.80
